createdAt,value
2022-11-23T00:01:37.967Z,11.82
2022-11-23T00:04:08.541Z,11.55
2022-11-23T00:06:35.325Z,11.93
2022-11-23T00:09:01.732Z,11.05
2022-11-23T00:11:28.497Z,11.05
2022-11-23T00:13:54.858Z,10.65
2022-11-23T00:16:22.512Z,11.20
2022-11-23T00:18:51.344Z,11.43
2022-11-23T00:21:18.321Z,11.20
2022-11-23T00:23:45.147Z,11.60
2022-11-23T00:26:11.909Z,10.68
2022-11-23T00:28:42.206Z,10.68
2022-11-23T00:31:09.656Z,11.18
2022-11-23T00:33:36.425Z,11.27
2022-11-23T00:36:04.059Z,10.93
2022-11-23T00:38:30.700Z,11.35
2022-11-23T00:41:01.363Z,11.43
2022-11-23T00:43:28.503Z,11.02
2022-11-23T00:46:05.199Z,11.35
2022-11-23T00:48:31.590Z,11.00
2022-11-23T00:50:59.349Z,11.82
2022-11-23T00:53:25.809Z,11.48
2022-11-23T00:55:55.857Z,12.05
2022-11-23T00:58:22.399Z,10.02
2022-11-23T01:00:48.826Z,10.63
2022-11-23T01:03:15.515Z,12.35
2022-11-23T01:05:42.072Z,10.95
2022-11-23T01:08:08.575Z,10.70
2022-11-23T01:10:34.977Z,11.63
2022-11-23T01:13:01.440Z,11.15
2022-11-23T01:15:27.847Z,12.35
2022-11-23T01:17:54.335Z,11.07
2022-11-23T01:20:20.716Z,10.68
2022-11-23T01:22:47.132Z,10.75
2022-11-23T01:25:13.524Z,11.50
2022-11-23T01:27:39.962Z,10.93
2022-11-23T01:30:07.986Z,10.25
2022-11-23T01:32:34.382Z,10.60
2022-11-23T01:35:00.803Z,10.40
2022-11-23T01:37:27.216Z,11.00
2022-11-23T01:39:53.688Z,11.15
2022-11-23T01:42:20.093Z,9.27
2022-11-23T01:44:46.433Z,10.77
2022-11-23T01:47:12.769Z,9.38
2022-11-23T01:49:40.831Z,10.80
2022-11-23T01:52:09.885Z,10.60
2022-11-23T01:54:43.674Z,9.77
2022-11-23T01:57:12.383Z,10.50
2022-11-23T01:59:38.941Z,10.10
2022-11-23T02:02:05.491Z,10.15
2022-11-23T02:04:34.045Z,11.63
2022-11-23T02:07:01.620Z,9.98
2022-11-23T02:09:29.859Z,10.02
2022-11-23T02:11:56.361Z,10.48
2022-11-23T02:14:23.651Z,11.15
2022-11-23T02:16:50.238Z,10.38
2022-11-23T02:19:21.186Z,9.25
2022-11-23T02:24:30.024Z,9.88
2022-11-23T02:26:57.097Z,9.13
2022-11-23T02:29:24.518Z,10.13
2022-11-23T02:31:53.075Z,10.02
2022-11-23T02:34:19.729Z,10.18
2022-11-23T02:36:50.500Z,9.32
2022-11-23T02:39:32.671Z,9.75
2022-11-23T02:41:59.489Z,9.63
2022-11-23T02:44:33.745Z,10.07
2022-11-23T02:47:00.428Z,9.98
2022-11-23T02:49:26.824Z,9.93
2022-11-23T02:51:53.421Z,9.23
2022-11-23T02:54:21.610Z,9.43
2022-11-23T02:56:48.009Z,10.30
2022-11-23T02:59:14.356Z,9.68
2022-11-23T03:01:40.695Z,10.32
2022-11-23T03:04:07.609Z,9.65
2022-11-23T03:06:33.993Z,9.43
2022-11-23T03:09:00.390Z,8.77
2022-11-23T03:11:26.738Z,8.73
2022-11-23T03:13:53.156Z,9.23
2022-11-23T03:16:19.595Z,10.23
2022-11-23T03:18:46.070Z,8.65
2022-11-23T03:21:12.608Z,9.88
2022-11-23T03:23:39.019Z,9.10
2022-11-23T03:26:11.296Z,8.80
2022-11-23T03:28:39.173Z,8.68
2022-11-23T03:31:05.593Z,9.55
2022-11-23T03:33:32.060Z,9.30
2022-11-23T03:35:58.407Z,9.07
2022-11-23T03:38:24.762Z,9.13
2022-11-23T03:40:51.221Z,9.45
2022-11-23T03:43:17.581Z,9.65
2022-11-23T03:45:44.044Z,8.63
2022-11-23T03:48:10.520Z,8.13
2022-11-23T03:50:37.010Z,9.18
2022-11-23T03:53:03.713Z,9.57
2022-11-23T03:55:30.128Z,8.73
2022-11-23T03:57:59.601Z,8.70
2022-11-23T04:00:26.684Z,9.27
2022-11-23T04:02:53.252Z,9.95
2022-11-23T04:05:19.735Z,9.05
2022-11-23T04:07:47.440Z,8.52
2022-11-23T04:10:17.990Z,8.57
2022-11-23T04:12:44.415Z,8.63
2022-11-23T04:15:10.893Z,8.02
2022-11-23T04:17:37.651Z,8.90
2022-11-23T04:20:04.536Z,8.68
2022-11-23T04:22:31.039Z,9.18
2022-11-23T04:24:57.430Z,10.07
2022-11-23T04:27:23.761Z,9.27
2022-11-23T04:29:50.162Z,9.93
2022-11-23T04:32:16.475Z,9.32
2022-11-23T04:34:42.877Z,8.90
2022-11-23T04:37:13.277Z,9.23
2022-11-23T04:42:06.401Z,8.27
2022-11-23T04:44:32.734Z,8.43
2022-11-23T04:46:59.062Z,8.40
2022-11-23T04:49:28.569Z,8.45
2022-11-23T04:51:55.048Z,8.63
2022-11-23T04:54:21.453Z,8.27
2022-11-23T04:56:47.806Z,8.88
2022-11-23T04:59:14.212Z,8.30
2022-11-23T05:01:40.668Z,8.98
2022-11-23T05:04:07.044Z,8.13
2022-11-23T05:06:33.525Z,8.00
2022-11-23T05:08:59.890Z,8.40
2022-11-23T05:11:27.142Z,8.40
2022-11-23T05:13:53.555Z,8.20
2022-11-23T05:16:19.976Z,8.68
2022-11-23T05:18:46.295Z,8.07
2022-11-23T05:21:12.689Z,8.90
2022-11-23T05:23:39.078Z,8.18
2022-11-23T05:26:05.508Z,8.32
2022-11-23T05:28:40.583Z,7.72
2022-11-23T05:31:07.666Z,7.65
2022-11-23T05:33:34.011Z,7.57
2022-11-23T05:36:00.537Z,7.45
2022-11-23T05:38:26.929Z,7.40
2022-11-23T05:40:53.272Z,7.78
2022-11-23T05:43:19.680Z,8.15
2022-11-23T05:45:46.015Z,7.70
2022-11-23T05:48:12.469Z,7.82
2022-11-23T05:50:38.845Z,7.63
2022-11-23T05:53:05.189Z,6.75
2022-11-23T05:55:31.608Z,7.63
2022-11-23T05:57:57.968Z,7.43
2022-11-23T06:00:24.349Z,8.68
2022-11-23T06:02:50.683Z,7.25
2022-11-23T06:05:17.053Z,7.75
2022-11-23T06:07:43.487Z,6.97
2022-11-23T06:10:11.458Z,8.32
2022-11-23T06:12:37.873Z,7.03
2022-11-23T06:15:04.417Z,7.88
2022-11-23T06:17:30.851Z,7.97
2022-11-23T06:19:57.245Z,6.88
2022-11-23T06:22:23.664Z,7.13
2022-11-23T06:24:50.067Z,7.68
2022-11-23T06:27:18.335Z,6.93
2022-11-23T06:29:44.954Z,6.53
2022-11-23T06:32:11.384Z,6.93
2022-11-23T06:34:37.785Z,6.13
2022-11-23T06:37:04.430Z,6.30
2022-11-23T06:39:31.183Z,6.47
2022-11-23T06:42:16.506Z,6.82
2022-11-23T06:44:44.220Z,5.68
2022-11-23T06:47:14.011Z,5.88
2022-11-23T06:49:43.265Z,5.88
2022-11-23T06:52:09.641Z,6.30
2022-11-23T06:54:36.064Z,5.88
2022-11-23T06:57:02.384Z,5.68
2022-11-23T06:59:28.826Z,5.38
2022-11-23T07:01:55.295Z,5.38
2022-11-23T07:04:21.642Z,6.53
2022-11-23T07:06:47.967Z,5.70
2022-11-23T07:09:14.396Z,5.53
2022-11-23T07:11:40.934Z,6.13
2022-11-23T07:14:10.033Z,6.05
2022-11-23T07:16:36.678Z,5.18
2022-11-23T07:19:03.126Z,5.22
2022-11-23T07:21:29.556Z,5.80
2022-11-23T07:23:56.021Z,5.47
2022-11-23T07:26:22.610Z,4.85
2022-11-23T07:28:48.977Z,6.25
2022-11-23T07:31:16.206Z,5.82
2022-11-23T07:33:46.001Z,5.88
2022-11-23T07:36:12.885Z,4.63
2022-11-23T07:38:39.444Z,4.68
2022-11-23T07:41:05.890Z,5.03
2022-11-23T07:43:32.508Z,5.50
2022-11-23T07:45:58.854Z,5.07
2022-11-23T07:48:25.340Z,4.75
2022-11-23T07:50:52.584Z,3.88
2022-11-23T07:53:19.155Z,5.15
2022-11-23T07:55:45.697Z,3.80
2022-11-23T07:58:12.321Z,4.63
2022-11-23T08:00:39.028Z,3.83
2022-11-23T08:03:26.714Z,4.60
2022-11-23T08:05:51.801Z,4.28
2022-11-23T08:08:18.170Z,4.30
2022-11-23T08:10:48.537Z,6.40
2022-11-23T08:13:20.121Z,4.68
2022-11-23T08:15:51.891Z,3.80
2022-11-23T08:18:20.745Z,4.07
2022-11-23T08:20:47.110Z,4.25
2022-11-23T08:23:13.564Z,3.58
2022-11-23T08:25:39.940Z,3.80
2022-11-23T08:28:06.312Z,3.63
2022-11-23T08:30:33.218Z,3.83
2022-11-23T08:33:02.157Z,3.95
2022-11-23T08:35:28.510Z,3.38
2022-11-23T08:37:54.888Z,4.05
2022-11-23T08:40:25.282Z,3.42
2022-11-23T08:45:18.371Z,3.08
2022-11-23T08:47:44.700Z,3.45
2022-11-23T08:50:11.059Z,3.70
2022-11-23T08:52:37.436Z,3.40
2022-11-23T08:55:03.996Z,3.60
2022-11-23T08:57:30.539Z,3.17
2022-11-23T08:59:56.940Z,3.13
2022-11-23T09:02:23.332Z,3.17
2022-11-23T09:04:49.783Z,3.55
2022-11-23T09:07:18.237Z,3.08
2022-11-23T09:09:44.733Z,3.30
2022-11-23T09:12:11.230Z,3.38
2022-11-23T09:14:37.626Z,3.35
2022-11-23T09:17:04.083Z,3.00
2022-11-23T09:19:30.511Z,2.83
2022-11-23T09:21:57.972Z,3.20
2022-11-23T09:24:25.807Z,2.70
2022-11-23T09:26:52.232Z,2.97
2022-11-23T09:29:18.607Z,3.05
2022-11-23T09:31:44.993Z,3.58
2022-11-23T09:34:14.351Z,2.85
2022-11-23T09:36:40.797Z,3.00
2022-11-23T09:39:07.376Z,2.70
2022-11-23T09:41:53.699Z,2.28
2022-11-23T09:44:25.576Z,2.67
2022-11-23T09:47:04.199Z,2.70
2022-11-23T09:49:38.496Z,2.58
2022-11-23T09:52:08.979Z,2.67
2022-11-23T09:54:39.987Z,3.60
2022-11-23T09:57:06.383Z,3.15
2022-11-23T09:59:44.963Z,5.03
2022-11-23T10:02:19.556Z,2.78
2022-11-23T10:04:45.924Z,3.10
2022-11-23T10:07:25.716Z,2.90
2022-11-23T10:09:59.398Z,2.28
2022-11-23T10:12:25.748Z,2.60
2022-11-23T10:14:52.103Z,3.03
2022-11-23T10:17:23.442Z,2.50
2022-11-23T10:19:49.919Z,2.50
2022-11-23T10:22:19.493Z,3.03
2022-11-23T10:24:50.064Z,2.60
2022-11-23T10:27:17.675Z,2.47
2022-11-23T10:29:44.136Z,2.30
2022-11-23T10:32:27.086Z,2.28
2022-11-23T10:34:59.594Z,1.98
2022-11-23T10:37:26.200Z,2.40
2022-11-23T10:39:52.626Z,2.30
2022-11-23T10:42:22.175Z,2.00
2022-11-23T10:44:50.089Z,2.72
2022-11-23T10:47:38.783Z,3.17
2022-11-23T10:50:20.003Z,2.33
2022-11-23T10:52:50.623Z,3.00
2022-11-23T10:55:18.095Z,2.28
2022-11-23T10:57:45.420Z,2.00
2022-11-23T11:00:14.827Z,2.65
2022-11-23T11:02:42.401Z,2.30
2022-11-23T11:05:46.409Z,2.25
2022-11-23T11:08:14.706Z,2.00
2022-11-23T11:10:42.869Z,2.55
2022-11-23T11:13:24.615Z,2.00
2022-11-23T11:15:57.288Z,2.40
2022-11-23T11:18:25.531Z,2.40
2022-11-23T11:21:03.012Z,2.10
2022-11-23T11:23:37.138Z,2.83
2022-11-23T11:26:05.141Z,2.58
2022-11-23T11:28:42.957Z,2.92
2022-11-23T11:31:21.023Z,2.67
2022-11-23T11:33:53.607Z,2.38
2022-11-23T11:36:20.933Z,2.50
2022-11-23T11:39:08.123Z,2.33
2022-11-23T11:41:36.520Z,4.20
2022-11-23T11:44:07.164Z,2.22
2022-11-23T11:46:36.793Z,2.40
2022-11-23T11:49:07.583Z,2.08
2022-11-23T11:51:40.188Z,4.80
2022-11-23T11:54:06.546Z,2.28
2022-11-23T11:56:33.099Z,2.60
2022-11-23T11:59:17.913Z,2.85
2022-11-23T12:01:50.426Z,2.47
2022-11-23T12:04:23.642Z,3.72
2022-11-23T12:06:56.335Z,2.78
2022-11-23T12:09:25.067Z,3.53
2022-11-23T12:11:52.229Z,2.45
2022-11-23T12:14:18.613Z,4.65
2022-11-23T12:17:10.509Z,2.03
2022-11-23T12:19:51.248Z,1.88
2022-11-23T12:22:32.122Z,2.17
2022-11-23T12:25:17.473Z,2.30
2022-11-23T12:27:49.455Z,8.65
2022-11-23T12:30:19.930Z,5.32
2022-11-23T12:32:46.285Z,3.63
2022-11-23T12:35:12.993Z,2.72
2022-11-23T12:37:44.614Z,2.33
2022-11-23T12:40:19.996Z,2.42
2022-11-23T12:42:52.671Z,2.45
2022-11-23T12:45:25.178Z,2.78
2022-11-23T12:47:51.522Z,2.42
2022-11-23T12:50:28.735Z,2.75
2022-11-23T12:52:59.841Z,2.58
2022-11-23T12:55:44.982Z,3.22
2022-11-23T12:58:18.954Z,2.60
2022-11-23T13:00:48.207Z,2.20
2022-11-23T13:03:33.500Z,2.60
2022-11-23T13:06:26.329Z,4.40
2022-11-23T13:09:03.752Z,2.55
2022-11-23T13:11:32.904Z,2.88
2022-11-23T13:14:07.604Z,2.22
2022-11-23T13:16:33.989Z,6.00
2022-11-23T13:19:09.251Z,4.03
2022-11-23T13:21:37.078Z,3.42
2022-11-23T13:24:03.934Z,4.13
2022-11-23T13:26:33.196Z,4.15
2022-11-23T13:29:01.409Z,2.60
2022-11-23T13:31:31.937Z,4.82
2022-11-23T13:33:59.863Z,4.80
2022-11-23T13:36:49.400Z,3.45
2022-11-23T13:39:34.428Z,3.78
2022-11-23T13:42:01.601Z,3.22
2022-11-23T13:44:29.854Z,3.13
2022-11-23T13:46:56.389Z,2.83
2022-11-23T13:49:45.049Z,2.50
2022-11-23T13:52:25.654Z,2.50
2022-11-23T13:55:09.399Z,3.45
2022-11-23T13:57:37.514Z,2.90
2022-11-23T14:00:22.858Z,2.85
2022-11-23T14:02:49.264Z,2.78
2022-11-23T14:05:34.155Z,3.40
2022-11-23T14:08:02.049Z,3.45
2022-11-23T14:10:30.142Z,2.40
2022-11-23T14:12:57.041Z,1.92
2022-11-23T14:15:30.949Z,2.33
2022-11-23T14:17:57.299Z,2.38
2022-11-23T14:20:42.350Z,7.22
2022-11-23T14:23:27.526Z,3.35
2022-11-23T14:25:53.999Z,3.05
2022-11-23T14:28:20.359Z,2.67
2022-11-23T14:30:58.885Z,2.08
2022-11-23T14:33:43.477Z,10.23
2022-11-23T14:36:19.984Z,2.83
2022-11-23T14:38:52.451Z,9.95
2022-11-23T14:41:27.781Z,5.25
2022-11-23T14:43:54.292Z,10.45
2022-11-23T14:46:22.597Z,3.33
2022-11-23T14:48:49.401Z,2.05
2022-11-23T14:51:18.898Z,2.20
2022-11-23T14:53:47.600Z,2.45
2022-11-23T14:56:30.653Z,2.47
2022-11-23T14:58:59.645Z,3.97
2022-11-23T15:01:26.497Z,3.90
2022-11-23T15:04:00.187Z,2.80
2022-11-23T15:06:29.991Z,5.20
2022-11-23T15:09:14.761Z,11.35
2022-11-23T15:11:41.224Z,14.38
2022-11-23T15:14:25.425Z,5.63
2022-11-23T15:16:51.900Z,3.13
2022-11-23T15:19:28.812Z,2.60
2022-11-23T15:21:56.126Z,8.82
2022-11-23T15:24:23.765Z,2.70
2022-11-23T15:26:50.547Z,2.42
2022-11-23T15:29:30.827Z,2.58
2022-11-23T15:32:22.330Z,3.60
2022-11-23T15:34:43.974Z,2.70
2022-11-23T15:37:11.116Z,3.33
2022-11-23T15:39:37.945Z,3.40
2022-11-23T15:42:04.606Z,2.40
2022-11-23T15:44:32.782Z,1.90
2022-11-23T15:47:00.617Z,1.92
2022-11-23T15:49:27.054Z,1.52
2022-11-23T15:51:59.444Z,1.92
2022-11-23T15:54:32.132Z,2.45
2022-11-23T15:56:58.741Z,2.00
2022-11-23T15:59:30.923Z,1.60
2022-11-23T16:01:57.955Z,1.88
2022-11-23T16:04:39.023Z,2.83
2022-11-23T16:09:50.494Z,1.50
2022-11-23T16:12:31.708Z,1.75
2022-11-23T16:14:59.081Z,1.73
2022-11-23T16:17:29.154Z,1.52
2022-11-23T16:19:56.816Z,1.67
2022-11-23T16:22:23.173Z,1.90
2022-11-23T16:24:50.659Z,1.63
2022-11-23T16:27:22.957Z,3.70
2022-11-23T16:29:50.037Z,2.30
2022-11-23T16:32:24.446Z,1.50
2022-11-23T16:34:51.156Z,1.50
2022-11-23T16:37:17.661Z,1.50
2022-11-23T16:39:44.017Z,1.73
2022-11-23T16:42:14.604Z,1.60
2022-11-23T16:44:42.071Z,1.73
2022-11-23T16:47:22.437Z,1.90
2022-11-23T16:49:49.076Z,1.60
2022-11-23T16:52:15.491Z,2.10
2022-11-23T16:54:41.867Z,2.13
2022-11-23T16:57:17.998Z,1.88
2022-11-23T16:59:44.409Z,2.08
2022-11-23T17:02:13.600Z,1.83
2022-11-23T17:04:42.416Z,1.98
2022-11-23T17:07:08.890Z,2.00
2022-11-23T17:09:35.817Z,1.95
2022-11-23T17:12:02.742Z,2.13
2022-11-23T17:14:35.087Z,2.42
2022-11-23T17:17:03.761Z,2.00
2022-11-23T17:19:30.879Z,2.28
2022-11-23T17:21:57.591Z,2.50
2022-11-23T17:24:24.081Z,1.83
2022-11-23T17:26:53.019Z,2.28
2022-11-23T17:29:20.296Z,2.35
2022-11-23T17:31:47.375Z,2.53
2022-11-23T17:34:14.485Z,1.90
2022-11-23T17:36:41.831Z,2.10
2022-11-23T17:39:10.103Z,7.50
2022-11-23T17:41:36.741Z,2.47
2022-11-23T17:44:03.157Z,3.08
2022-11-23T17:46:31.514Z,2.05
2022-11-23T17:48:58.924Z,2.20
2022-11-23T17:51:25.516Z,2.38
2022-11-23T17:53:52.220Z,2.75
2022-11-23T17:56:19.506Z,5.50
2022-11-23T17:58:46.447Z,3.60
2022-11-23T18:01:14.929Z,4.07
2022-11-23T18:03:44.815Z,7.30
2022-11-23T18:06:21.369Z,2.92
2022-11-23T18:08:48.420Z,4.38
2022-11-23T18:11:15.552Z,3.22
2022-11-23T18:13:42.603Z,3.40
2022-11-23T18:16:09.517Z,3.28
2022-11-23T18:18:36.351Z,4.00
2022-11-23T18:21:02.946Z,3.65
2022-11-23T18:23:29.367Z,3.28
2022-11-23T18:26:07.094Z,4.07
2022-11-23T18:28:33.509Z,3.83
2022-11-23T18:31:00.016Z,3.85
2022-11-23T18:33:27.606Z,3.70
2022-11-23T18:35:53.995Z,3.30
2022-11-23T18:38:20.410Z,2.97
2022-11-23T18:40:46.765Z,9.27
2022-11-23T18:43:13.137Z,4.40
2022-11-23T18:45:39.581Z,7.35
2022-11-23T18:48:07.803Z,5.10
2022-11-23T18:50:34.672Z,3.47
2022-11-23T18:53:01.009Z,3.75
2022-11-23T18:55:27.393Z,3.42
2022-11-23T18:57:54.592Z,4.45
2022-11-23T19:00:21.912Z,3.17
2022-11-23T19:02:55.193Z,3.90
2022-11-23T19:05:21.684Z,3.40
2022-11-23T19:07:48.391Z,3.63
2022-11-23T19:10:15.163Z,3.30
2022-11-23T19:12:41.679Z,3.00
2022-11-23T19:15:09.684Z,2.90
2022-11-23T19:17:36.660Z,2.97
2022-11-23T19:20:05.971Z,2.67
2022-11-23T19:22:33.093Z,2.42
2022-11-23T19:24:59.471Z,3.33
2022-11-23T19:27:25.832Z,2.85
2022-11-23T19:29:52.179Z,3.65
2022-11-23T19:32:18.680Z,3.00
2022-11-23T19:34:45.022Z,3.47
2022-11-23T19:37:11.379Z,3.10
2022-11-23T19:39:37.739Z,2.90
2022-11-23T19:42:04.093Z,3.10
2022-11-23T19:44:30.480Z,3.00
2022-11-23T19:46:56.879Z,3.28
2022-11-23T19:49:23.311Z,3.78
2022-11-23T19:51:52.289Z,3.45
2022-11-23T19:54:18.676Z,3.00
2022-11-23T19:56:45.107Z,4.10
2022-11-23T19:59:14.217Z,4.20
2022-11-23T20:01:40.616Z,3.50
2022-11-23T20:04:09.532Z,3.30
2022-11-23T20:06:37.318Z,3.60
2022-11-23T20:09:05.075Z,3.15
2022-11-23T20:11:31.927Z,2.88
2022-11-23T20:13:58.736Z,2.95
2022-11-23T20:16:29.919Z,3.10
2022-11-23T20:18:58.694Z,3.13
2022-11-23T20:21:25.584Z,3.10
2022-11-23T20:24:18.352Z,3.00
2022-11-23T20:26:44.775Z,2.83
2022-11-23T20:29:11.368Z,2.60
2022-11-23T20:31:38.407Z,2.75
2022-11-23T20:34:07.339Z,2.60
2022-11-23T20:36:35.741Z,2.63
2022-11-23T20:39:03.192Z,2.63
2022-11-23T20:41:31.012Z,2.67
2022-11-23T20:43:58.864Z,2.90
2022-11-23T20:46:53.706Z,2.70
2022-11-23T20:49:13.098Z,2.35
2022-11-23T20:51:39.510Z,2.58
2022-11-23T20:54:05.851Z,2.58
2022-11-23T20:56:38.038Z,2.17
2022-11-23T20:59:04.976Z,2.33
2022-11-23T21:01:31.522Z,3.17
2022-11-23T21:03:58.760Z,3.00
2022-11-23T21:06:25.531Z,4.07
2022-11-23T21:08:52.463Z,4.18
2022-11-23T21:11:42.742Z,3.90
2022-11-23T21:14:17.957Z,5.00
2022-11-23T21:16:52.949Z,3.50
2022-11-23T21:19:20.267Z,3.38
2022-11-23T21:21:46.948Z,3.05
2022-11-23T21:24:13.512Z,3.00
2022-11-23T21:26:40.222Z,2.90
2022-11-23T21:29:11.251Z,2.63
2022-11-23T21:31:38.738Z,2.95
2022-11-23T21:34:05.409Z,3.20
2022-11-23T21:36:35.578Z,3.10
2022-11-23T21:39:03.148Z,3.75
2022-11-23T21:41:29.842Z,3.47
2022-11-23T21:43:56.434Z,3.60
2022-11-23T21:46:24.502Z,3.58
2022-11-23T21:48:55.186Z,3.25
2022-11-23T21:51:22.148Z,3.10
2022-11-23T21:53:50.308Z,3.13
2022-11-23T21:56:17.595Z,2.97
2022-11-23T21:58:44.318Z,2.85
2022-11-23T22:01:21.040Z,3.03
2022-11-23T22:03:49.485Z,3.13
2022-11-23T22:06:20.416Z,2.88
2022-11-23T22:08:48.602Z,3.15
2022-11-23T22:11:24.713Z,2.95
2022-11-23T22:14:14.991Z,2.58
2022-11-23T22:16:41.467Z,2.90
2022-11-23T22:19:10.431Z,2.53
2022-11-23T22:21:37.471Z,2.55
2022-11-23T22:24:04.770Z,3.03
2022-11-23T22:26:31.319Z,2.75
2022-11-23T22:29:02.499Z,3.42
2022-11-23T22:31:33.894Z,3.00
2022-11-23T22:34:01.256Z,3.10
2022-11-23T22:36:27.800Z,2.38
2022-11-23T22:39:01.283Z,2.67
2022-11-23T22:41:28.688Z,3.13
2022-11-23T22:43:55.223Z,3.35
2022-11-23T22:46:23.077Z,2.90
2022-11-23T22:48:51.599Z,2.70
2022-11-23T22:51:21.947Z,2.53
2022-11-23T22:53:48.703Z,2.33
2022-11-23T22:56:19.708Z,3.05
2022-11-23T22:58:47.372Z,2.70
2022-11-23T23:01:18.065Z,2.70
2022-11-23T23:03:44.849Z,2.78
2022-11-23T23:06:14.877Z,2.65
2022-11-23T23:08:41.344Z,3.00
2022-11-23T23:11:13.338Z,2.50
2022-11-23T23:13:40.817Z,2.80
2022-11-23T23:16:08.699Z,2.70
2022-11-23T23:18:35.442Z,2.42
2022-11-23T23:21:03.050Z,2.78
2022-11-23T23:23:29.991Z,2.28
2022-11-23T23:25:56.503Z,2.78
2022-11-23T23:28:25.254Z,2.35
2022-11-23T23:30:51.705Z,2.53
2022-11-23T23:33:18.199Z,2.53
2022-11-23T23:35:44.750Z,2.90
2022-11-23T23:38:11.199Z,2.92
2022-11-23T23:40:37.601Z,3.30
2022-11-23T23:43:04.046Z,2.63
2022-11-23T23:45:30.553Z,2.15
2022-11-23T23:47:57.482Z,2.60
2022-11-23T23:50:23.914Z,2.88
2022-11-23T23:52:50.389Z,2.88
2022-11-23T23:55:16.893Z,2.90
2022-11-23T23:57:43.297Z,2.75
